Flight Track Log - Related Links

Times and Time Zones

All times are in EDT time to prevent confusion due to time zone crossing. See the N43317 flight status page for this flight to view local times or setup timezone preferences in your user account.


Time Position Orientation Groundspeed Altitude Reporting Facility
EDT Latitude Longitude Course Direction KTS MPH feet Rate Location/Type
Sun 02:13:32 PM 37.6467 -97.4269 192° South 70 81 1,700  Level Kansas City Center
Sun 02:14:32 PM 37.6264 -97.4325 192° South 69 79 2,600 722 Climbing Kansas City Center
Sun 02:15:20 PM 37.6175 -97.4269 154° Southeast 78 90 3,000 545 Climbing Kansas City Center
Sun 02:16:22 PM 37.6122 -97.3908 100° East 85 98 3,600 677 Climbing Kansas City Center
Sun 02:17:24 PM 37.6308 -97.3672 45° Northeast 106 122 4,400 645 Climbing Kansas City Center
Sun 02:18:23 PM 37.6608 -97.3558 17° North 117 135 4,900 581 Climbing Kansas City Center
Sun 02:19:28 PM 37.6914 -97.3425 19° North 113 130 5,600 661 Climbing Kansas City Center
Sun 02:20:30 PM 37.7219 -97.3275 21° North 116 133 6,300 667 Climbing Kansas City Center
Sun 02:21:25 PM 37.7514 -97.3153 18° North 115 132 6,900 365 Climbing Kansas City Center
Sun 02:22:25 PM 37.7897 -97.2989 19° North 136 157 7,000 50 Climbing Kansas City Center
Sun 02:23:26 PM 37.8303 -97.2844 16° North 155 178 7,000 50 Level Kansas City Center
Sun 02:24:26 PM 37.8686 -97.2678 19° North 154 177 7,100  Climbing Kansas City Center
Sun 02:25:41 PM 37.9158 -97.2472 19° North 151 174 7,000 -88 Descending Kansas City Center
Sun 02:26:43 PM 37.9581 -97.2328 15° North 156 180 6,900  Descending Kansas City Center
Sun 02:27:45 PM 37.9972 -97.2153 19° North 151 174 7,000 48 Climbing Kansas City Center
Sun 02:28:47 PM 38.0436 -97.1894 24° Northeast 151 174 7,000 48 Level Kansas City Center
Sun 02:29:49 PM 38.0822 -97.1683 23° Northeast 152 175 7,100  Climbing Kansas City Center
Sun 02:30:51 PM 38.1214 -97.1500 20° North 151 174 7,000 -48 Descending Kansas City Center
Sun 02:31:53 PM 38.1619 -97.1336 18° North 152 175 7,000  Level Kansas City Center
Sun 02:32:55 PM 38.2014 -97.1131 22° Northeast 153 176 7,000 48 Level Kansas City Center
Sun 02:33:57 PM 38.2386 -97.0919 24° Northeast 148 170 7,100 -48 Climbing Kansas City Center
Sun 02:34:59 PM 38.2875 -97.0708 19° North 153 176 6,900 -48 Descending Kansas City Center
Sun 02:36:01 PM 38.3261 -97.0531 20° North 148 170 7,000 48 Climbing Kansas City Center
Sun 02:37:03 PM 38.3636 -97.0339 22° Northeast 146 168 7,000  Level Kansas City Center
Sun 02:38:05 PM 38.4039 -97.0153 20° North 149 171 7,000 -48 Level Kansas City Center
Sun 02:39:07 PM 38.4417 -96.9969 21° North 150 173 6,900 48 Descending Kansas City Center
Sun 02:40:09 PM 38.4889 -96.9778 18° North 148 170 7,100 48 Climbing Kansas City Center
Sun 02:41:11 PM 38.5275 -96.9619 18° North 150 173 7,000 -97 Descending Kansas City Center
Sun 02:42:13 PM 38.5706 -96.9483 14° North 153 176 6,900 48 Descending Kansas City Center
Sun 02:43:15 PM 38.6100 -96.9289 21° North 145 167 7,100  Climbing Kansas City Center
Sun 02:44:17 PM 38.6497 -96.9122 18° North 144 166 6,900 -48 Descending Kansas City Center
Sun 02:45:19 PM 38.6853 -96.8950 21° North 133 153 7,000 97 Climbing Kansas City Center
Sun 02:46:21 PM 38.7242 -96.8758 21° North 141 162 7,100 48 Climbing Kansas City Center
Sun 02:47:23 PM 38.7658 -96.8567 20° North 152 175 7,100  Level Kansas City Center
Sun 02:48:25 PM 38.8075 -96.8333 24° Northeast 157 181 7,100  Level Kansas City Center
Sun 02:49:27 PM 38.8467 -96.8156 19° North 154 177 7,100 -97 Level Kansas City Center
Sun 02:50:29 PM 38.8894 -96.7975 18° North 156 180 6,900  Descending Kansas City Center
Sun 02:51:32 PM 38.9306 -96.7786 20° North 150 173 7,100 48 Climbing Kansas City Center
Sun 02:52:34 PM 38.9731 -96.7625 16° North 154 177 7,000  Descending Kansas City Center
Sun 02:53:36 PM 39.0131 -96.7386 25° Northeast 154 177 7,100  Climbing Kansas City Center
Sun 02:54:38 PM 39.0525 -96.7153 25° Northeast 150 173 7,000  Descending Kansas City Center
Sun 02:55:40 PM 39.0931 -96.6958 20° North 151 174 7,100 48 Climbing Kansas City Center
Sun 02:56:42 PM 39.1328 -96.6711 26° Northeast 154 177 7,100 -48 Level Kansas City Center
Sun 02:57:44 PM 39.1747 -96.6544 17° North 152 175 7,000 -48 Descending Kansas City Center
Sun 02:58:46 PM 39.2164 -96.6331 22° Northeast 153 176 7,000 48 Level Kansas City Center
Sun 02:59:48 PM 39.2539 -96.6167 19° North 149 171 7,100  Climbing Kansas City Center
Sun 03:00:50 PM 39.2969 -96.6011 16° North 153 176 7,000  Descending Kansas City Center
Sun 03:01:52 PM 39.3394 -96.5822 19° North 153 176 7,100  Climbing Kansas City Center
Sun 03:02:54 PM 39.3819 -96.5658 17° North 152 175 7,000  Descending Kansas City Center
Sun 03:03:56 PM 39.4247 -96.5481 18° North 155 178 7,100  Climbing Kansas City Center
Sun 03:04:58 PM 39.4681 -96.5294 18° North 158 182 7,000  Descending Kansas City Center
Sun 03:06:00 PM 39.5114 -96.5122 17° North 157 181 7,100  Climbing Kansas City Center
Sun 03:07:02 PM 39.5519 -96.4964 17° North 157 181 7,000  Descending Kansas City Center
Sun 03:08:04 PM 39.5958 -96.4786 17° North 159 183 7,100  Climbing Kansas City Center
Sun 03:09:06 PM 39.6397 -96.4603 18° North 159 183 7,000 -48 Descending Kansas City Center
Sun 03:10:08 PM 39.6839 -96.4425 17° North 159 183 7,000 -48 Level Kansas City Center
Sun 03:11:10 PM 39.7283 -96.4244 17° North 160 184 6,900  Descending Kansas City Center
Sun 03:12:12 PM 39.7714 -96.4053 19° North 158 182 7,000 97 Climbing Kansas City Center
Sun 03:13:14 PM 39.8122 -96.3878 18° North 154 177 7,100  Climbing Kansas City Center
Sun 03:14:16 PM 39.8536 -96.3733 15° North 159 183 7,000 -48 Descending Kansas City Center
Sun 03:15:18 PM 39.9014 -96.3575 14° North 158 182 7,000  Level Kansas City Center
Sun 03:16:20 PM 39.9411 -96.3397 19° North 159 183 7,000 48 Level Kansas City Center
Sun 03:17:22 PM 39.9883 -96.3206 17° North 158 182 7,100  Climbing Kansas City Center
Sun 03:18:24 PM 40.0294 -96.3019 19° North 161 185 7,000 -48 Descending Kansas City Center
Sun 03:19:26 PM 40.0694 -96.2842 19° North 159 183 7,000  Level Kansas City Center
Sun 03:20:28 PM 40.1156 -96.2622 20° North 157 181 7,000  Level Kansas City Center
Sun 03:21:30 PM 40.1564 -96.2436 19° North 160 184 7,000 -48 Level Kansas City Center
Sun 03:22:32 PM 40.2053 -96.2267 15° North 162 186 6,900  Descending Kansas City Center
Sun 03:23:35 PM 40.2453 -96.2083 19° North 159 183 7,000 48 Climbing Kansas City Center
Sun 03:24:36 PM 40.2911 -96.1878 19° North 157 181 7,000  Level Kansas City Center
Sun 03:25:38 PM 40.3319 -96.1664 22° Northeast 162 186 7,000  Level Kansas City Center
Sun 03:26:40 PM 40.3792 -96.1469 17° North 161 185 7,000  Level Kansas City Center
Sun 03:27:43 PM 40.4194 -96.1325 15° North 157 181 7,000  Level Kansas City Center
Sun 03:28:45 PM 40.4667 -96.1111 19° North 160 184 7,000  Level Kansas City Center
Sun 03:29:54 PM 40.5164 -96.0800 25° Northeast 162 186 7,000  Level Minneapolis Center
Sun 03:31:00 PM 40.5611 -96.0583 20° North 162 186 7,000  Level Minneapolis Center

Login

Don't have an account? Register now (free) for customized features, flight alerts, and more!